Time;durP1;ratioP1;P1;durP2;ratioP2;P2;SDS_P1;SDS_P2;PMS_P1;PMS_P2;Temp;Humidity;BMP_temperature;BMP_pressure;BME280_temperature;BME280_humidity;BME280_pressure;Samples;Min_cycle;Max_cycle;Signal;HPM_P1;HPM_P2
2022/10/05 00:00:58;;;;;;;13.52;4.05;;;22.00;99.90;;;;;;5107235;28;21269;-67
2022/10/05 00:03:32;;;;;;;14.35;4.10;;;22.00;99.90;;;;;;5109842;28;20428;-67
2022/10/05 00:05:59;;;;;;;13.48;4.35;;;22.00;99.90;;;;;;5102942;28;20437;-67
2022/10/05 00:08:33;;;;;;;13.00;4.10;;;22.00;99.90;;;;;;5107982;28;20423;-67
2022/10/05 00:11:01;;;;;;;15.23;4.55;;;21.90;99.90;;;;;;5110895;28;20400;-67
2022/10/05 00:13:30;;;;;;;10.47;4.30;;;21.90;99.90;;;;;;5101063;28;20410;-67
2022/10/05 00:16:21;;;;;;;12.13;4.43;;;21.90;99.90;;;;;;5108557;28;20420;-67
2022/10/05 00:18:52;;;;;;;12.80;4.30;;;21.80;99.90;;;;;;5090215;28;20746;-67
2022/10/05 00:21:26;;;;;;;16.17;4.40;;;21.70;99.90;;;;;;5111056;28;20412;-67
2022/10/05 00:23:56;;;;;;;12.10;4.20;;;21.60;99.90;;;;;;5106779;28;20788;-67
2022/10/05 00:26:31;;;;;;;13.77;4.40;;;21.60;99.90;;;;;;5109477;28;20419;-67
2022/10/05 00:29:00;;;;;;;12.73;4.20;;;21.60;99.90;;;;;;5109702;28;20414;-67
2022/10/05 00:31:34;;;;;;;11.68;4.00;;;21.60;99.90;;;;;;5107514;28;20920;-67
2022/10/05 00:34:00;;;;;;;10.98;3.90;;;21.50;99.90;;;;;;5122797;27;20545;-67
2022/10/05 00:36:27;;;;;;;14.00;4.15;;;21.50;99.90;;;;;;5102071;28;20986;-67
2022/10/05 00:38:54;;;;;;;13.45;4.20;;;21.40;99.90;;;;;;5107507;28;20939;-67
2022/10/05 00:42:03;;;;;;;13.93;4.35;;;21.40;99.90;;;;;;5108558;28;20749;-67
2022/10/05 00:44:43;;;;;;;10.98;3.80;;;21.30;99.90;;;;;;5123606;27;20413;-67
2022/10/05 00:47:42;;;;;;;15.70;4.30;;;21.30;99.90;;;;;;5102704;28;20461;-67
2022/10/05 00:50:32;;;;;;;16.80;4.35;;;21.30;99.90;;;;;;5106915;28;20448;-67
2022/10/05 00:53:29;;;;;;;13.10;4.30;;;21.40;99.90;;;;;;5116977;27;20914;-67
2022/10/05 00:56:23;;;;;;;13.88;4.28;;;21.40;99.90;;;;;;5090120;28;20587;-67
2022/10/05 00:59:30;;;;;;;13.33;4.20;;;21.40;99.90;;;;;;5098881;28;20523;-67
2022/10/05 01:02:06;;;;;;;13.30;3.90;;;21.30;99.90;;;;;;5122994;27;20465;-67
2022/10/05 01:05:06;;;;;;;13.90;4.37;;;21.20;99.90;;;;;;5125341;27;20529;-67
2022/10/05 01:07:44;;;;;;;14.10;4.38;;;21.20;99.90;;;;;;5104568;28;20415;-67
2022/10/05 01:10:33;;;;;;;14.30;4.40;;;21.20;99.90;;;;;;5104259;28;20408;-67
2022/10/05 01:13:30;;;;;;;13.55;4.20;;;21.20;99.90;;;;;;5109801;28;20404;-67
2022/10/05 01:16:09;;;;;;;14.40;4.30;;;21.20;99.90;;;;;;5104186;28;20523;-67
2022/10/05 01:19:24;;;;;;;12.10;4.07;;;21.30;99.90;;;;;;5114406;27;20419;-67
2022/10/05 01:22:05;;;;;;;11.38;4.30;;;21.30;99.90;;;;;;5099636;28;20412;-67
2022/10/05 01:25:03;;;;;;;10.82;4.32;;;21.30;99.90;;;;;;5109022;28;20408;-67
2022/10/05 01:27:52;;;;;;;13.15;4.40;;;21.30;99.90;;;;;;5108761;28;20820;-67
2022/10/05 01:30:23;;;;;;;11.93;4.40;;;21.40;99.90;;;;;;5107958;28;20522;-67
2022/10/05 01:33:08;;;;;;;16.27;4.47;;;21.40;99.90;;;;;;5125102;27;20442;-67
2022/10/05 01:36:27;;;;;;;13.10;5.10;;;21.40;99.90;;;;;;5114284;27;20412;-67
2022/10/05 01:39:24;;;;;;;13.18;4.65;;;21.40;99.90;;;;;;5088249;28;20891;-67
2022/10/05 01:42:20;;;;;;;15.07;4.67;;;21.40;99.90;;;;;;5104500;28;21168;-67
2022/10/05 01:45:06;;;;;;;17.02;4.78;;;21.40;99.90;;;;;;5115166;27;20852;-67
2022/10/05 01:47:46;;;;;;;11.75;4.80;;;21.40;99.90;;;;;;5109106;28;20399;-67
2022/10/05 01:50:36;;;;;;;10.95;4.80;;;21.40;99.90;;;;;;5105620;28;20517;-67
2022/10/05 01:53:32;;;;;;;14.10;4.53;;;21.40;99.90;;;;;;5106555;28;20812;-67
2022/10/05 01:56:23;;;;;;;12.70;4.35;;;21.40;99.90;;;;;;5091956;28;20487;-67
2022/10/05 01:59:15;;;;;;;13.02;4.10;;;21.40;99.90;;;;;;5100289;28;20423;-67
2022/10/05 02:02:24;;;;;;;16.50;4.75;;;21.40;99.90;;;;;;5102494;28;20434;-67
2022/10/05 02:05:21;;;;;;;16.17;5.07;;;21.30;99.90;;;;;;5085016;28;20422;-67
2022/10/05 02:08:07;;;;;;;13.32;4.65;;;21.30;99.90;;;;;;5085918;28;20466;-67
2022/10/05 02:11:06;;;;;;;11.30;4.45;;;21.30;99.90;;;;;;5095282;28;20412;-67
2022/10/05 02:13:48;;;;;;;13.60;4.70;;;21.40;99.90;;;;;;5064993;28;20803;-67
2022/10/05 02:16:38;;;;;;;13.80;4.80;;;21.30;99.90;;;;;;5107455;28;20408;-67
2022/10/05 02:19:28;;;;;;;12.77;4.50;;;21.30;99.90;;;;;;5103911;28;20439;-67
2022/10/05 02:22:32;;;;;;;15.35;4.43;;;21.20;99.90;;;;;;5107788;28;20935;-67
2022/10/05 02:25:07;;;;;;;14.15;5.03;;;21.20;99.90;;;;;;5101188;28;20539;-67
2022/10/05 02:27:43;;;;;;;13.52;4.32;;;21.20;99.90;;;;;;5124400;28;20400;-67
2022/10/05 02:30:10;;;;;;;14.80;4.60;;;21.10;99.90;;;;;;5103383;28;21004;-67
2022/10/05 02:32:53;;;;;;;17.55;5.05;;;21.10;99.90;;;;;;5100080;28;20448;-67
2022/10/05 02:35:21;;;;;;;11.60;4.55;;;21.10;99.90;;;;;;5124106;28;21192;-67
2022/10/05 02:38:09;;;;;;;13.65;4.57;;;21.00;99.90;;;;;;5124194;28;20895;-67
2022/10/05 02:41:18;;;;;;;19.33;5.40;;;21.00;99.90;;;;;;5106212;28;20416;-67
2022/10/05 02:44:10;;;;;;;16.73;5.10;;;20.90;99.90;;;;;;5100686;28;20404;-67
2022/10/05 02:47:13;;;;;;;15.90;4.95;;;20.90;99.90;;;;;;5122868;27;20502;-67
2022/10/05 02:49:53;;;;;;;14.07;5.40;;;20.90;99.90;;;;;;5111254;28;20418;-67
2022/10/05 02:52:38;;;;;;;17.20;5.57;;;20.90;99.90;;;;;;5112444;28;20469;-67
2022/10/05 02:55:32;;;;;;;12.85;4.75;;;20.90;99.90;;;;;;5112271;28;20412;-67
2022/10/05 02:58:06;;;;;;;16.13;4.95;;;20.90;99.90;;;;;;5111097;28;20798;-67
2022/10/05 03:00:44;;;;;;;16.70;5.13;;;20.90;99.90;;;;;;5092888;28;20468;-67
2022/10/05 03:03:34;;;;;;;13.95;4.82;;;20.90;99.90;;;;;;5110774;28;21404;-67
2022/10/05 03:06:09;;;;;;;16.42;5.35;;;20.80;99.90;;;;;;5111932;28;20481;-67
2022/10/05 03:09:02;;;;;;;15.52;4.88;;;20.80;99.90;;;;;;5110634;28;20396;-67
2022/10/05 03:11:51;;;;;;;13.60;4.93;;;20.80;99.90;;;;;;5107546;28;20434;-67
2022/10/05 03:14:27;;;;;;;14.50;4.70;;;20.70;99.90;;;;;;5108818;28;20479;-67
2022/10/05 03:17:23;;;;;;;16.27;5.00;;;20.70;99.90;;;;;;5109151;28;20893;-67
2022/10/05 03:20:10;;;;;;;14.52;4.90;;;20.70;99.90;;;;;;5117248;27;20416;-67
2022/10/05 03:22:55;;;;;;;15.05;4.70;;;20.60;99.90;;;;;;5117179;27;20439;-67
2022/10/05 03:25:34;;;;;;;14.05;4.97;;;20.60;99.90;;;;;;5102535;28;20449;-67
2022/10/05 03:28:20;;;;;;;15.02;5.07;;;20.60;99.90;;;;;;5111786;28;20908;-67
2022/10/05 03:31:29;;;;;;;18.13;5.03;;;20.60;99.90;;;;;;5088789;28;20889;-67
2022/10/05 03:34:24;;;;;;;15.27;4.88;;;20.60;99.90;;;;;;5091852;28;20479;-67
2022/10/05 03:37:09;;;;;;;16.23;4.63;;;20.60;99.90;;;;;;5114076;27;20429;-67
2022/10/05 03:39:52;;;;;;;15.75;5.13;;;20.50;99.90;;;;;;5110838;28;20447;-67
2022/10/05 03:42:33;;;;;;;14.00;4.50;;;20.50;99.90;;;;;;5110170;28;20970;-67
2022/10/05 03:45:27;;;;;;;15.63;5.27;;;20.50;99.90;;;;;;5111296;28;20477;-67
2022/10/05 03:48:13;;;;;;;16.17;5.22;;;20.50;99.90;;;;;;5108576;28;20481;-67
2022/10/05 03:51:20;;;;;;;16.75;5.35;;;20.60;99.90;;;;;;5100993;28;20885;-67
2022/10/05 03:54:02;;;;;;;15.93;5.20;;;20.70;99.90;;;;;;5065936;28;20915;-67
2022/10/05 03:56:41;;;;;;;20.48;5.68;;;20.70;99.90;;;;;;5101488;28;20412;-67
2022/10/05 03:59:16;;;;;;;21.87;5.70;;;20.80;99.90;;;;;;5108417;28;20416;-67
2022/10/05 04:02:08;;;;;;;20.30;5.55;;;20.80;99.90;;;;;;5085319;28;20416;-67
2022/10/05 04:05:05;;;;;;;21.90;5.22;;;20.80;99.90;;;;;;5108731;28;20416;-67
2022/10/05 04:08:15;;;;;;;15.55;5.05;;;20.70;99.90;;;;;;5102624;28;20479;-67
2022/10/05 04:11:10;;;;;;;15.65;4.97;;;20.70;99.90;;;;;;5110604;28;20440;-67
2022/10/05 04:14:11;;;;;;;14.38;5.20;;;20.70;99.90;;;;;;5091907;28;20415;-67
2022/10/05 04:16:45;;;;;;;18.88;5.60;;;20.80;99.90;;;;;;5108919;28;20408;-67
2022/10/05 04:19:35;;;;;;;16.17;5.35;;;20.80;99.90;;;;;;5126296;27;20404;-67
2022/10/05 04:22:24;;;;;;;17.65;5.70;;;20.80;99.90;;;;;;5110871;28;20494;-67
2022/10/05 04:25:21;;;;;;;17.95;5.45;;;20.80;99.90;;;;;;5108967;28;20501;-67
2022/10/05 04:28:13;;;;;;;16.48;5.82;;;20.80;99.90;;;;;;5104081;28;20417;-67
2022/10/05 04:30:46;;;;;;;15.20;5.10;;;20.80;99.90;;;;;;5101505;28;20491;-67
2022/10/05 04:33:14;;;;;;;17.23;5.28;;;20.80;99.90;;;;;;5108099;28;20440;-67
2022/10/05 04:36:13;;;;;;;12.27;5.18;;;20.80;99.90;;;;;;5101722;28;20458;-67
2022/10/05 04:39:24;;;;;;;15.98;4.75;;;20.80;99.90;;;;;;5102015;28;20462;-67
2022/10/05 04:42:13;;;;;;;14.00;4.72;;;20.70;99.90;;;;;;5108583;28;20415;-67
2022/10/05 04:45:29;;;;;;;13.65;4.95;;;20.70;99.90;;;;;;5108881;28;20412;-67
2022/10/05 04:48:25;;;;;;;15.15;4.82;;;20.80;99.90;;;;;;5046984;28;20416;-67
2022/10/05 04:51:18;;;;;;;15.52;5.18;;;20.80;99.90;;;;;;5103739;28;20443;-67
2022/10/05 04:54:02;;;;;;;15.25;5.00;;;20.80;99.90;;;;;;5088562;28;20704;-67
2022/10/05 04:56:57;;;;;;;16.63;5.73;;;20.80;99.90;;;;;;5106594;28;20432;-67
2022/10/05 04:59:49;;;;;;;16.92;5.47;;;20.80;99.90;;;;;;5104837;28;20870;-67
2022/10/05 05:03:02;;;;;;;13.55;5.25;;;20.90;99.90;;;;;;5103281;28;20758;-67
2022/10/05 05:05:50;;;;;;;15.83;5.60;;;20.90;99.90;;;;;;5105345;28;20412;-67
2022/10/05 05:09:15;;;;;;;16.30;5.97;;;20.90;99.90;;;;;;5098359;28;20439;-67
2022/10/05 05:11:56;;;;;;;17.23;5.55;;;21.00;99.90;;;;;;5101413;28;20415;-67
2022/10/05 05:14:35;;;;;;;15.23;5.53;;;21.00;99.90;;;;;;5115621;27;20747;-66
2022/10/05 05:17:09;;;;;;;17.90;5.75;;;21.00;99.90;;;;;;5104329;28;20421;-67
2022/10/05 05:20:20;;;;;;;18.23;5.78;;;21.10;99.90;;;;;;5108156;28;21087;-66
2022/10/05 05:23:12;;;;;;;13.87;5.80;;;21.10;99.90;;;;;;5087260;28;20412;-67
2022/10/05 05:25:48;;;;;;;16.60;5.70;;;21.20;99.90;;;;;;5103809;28;20869;-65
2022/10/05 05:28:58;;;;;;;22.17;6.22;;;21.20;99.90;;;;;;5112802;27;20427;-66
2022/10/05 05:31:37;;;;;;;19.05;5.95;;;21.20;99.90;;;;;;5066544;28;20443;-67
2022/10/05 05:35:02;;;;;;;16.20;5.70;;;21.30;99.90;;;;;;5113833;27;20419;-67
2022/10/05 05:38:02;;;;;;;16.75;5.90;;;21.30;99.90;;;;;;5103682;28;20433;-67
2022/10/05 05:41:11;;;;;;;19.63;6.03;;;21.40;99.90;;;;;;5104277;28;20412;-66
2022/10/05 05:43:56;;;;;;;20.98;6.32;;;21.40;99.90;;;;;;5081702;28;20408;-66
2022/10/05 05:46:36;;;;;;;22.63;6.40;;;21.50;99.90;;;;;;5098171;28;20887;-67
2022/10/05 05:49:26;;;;;;;18.50;6.07;;;21.50;99.90;;;;;;5107916;28;20514;-67
2022/10/05 05:52:22;;;;;;;24.98;6.47;;;21.50;99.90;;;;;;5106942;28;20400;-66
2022/10/05 05:55:18;;;;;;;15.45;5.75;;;21.50;99.90;;;;;;5095597;28;20405;-67
2022/10/05 05:58:16;;;;;;;15.63;6.03;;;21.60;99.90;;;;;;5086854;28;20423;-67
2022/10/05 06:00:57;;;;;;;18.17;5.65;;;21.60;99.90;;;;;;5090623;28;20424;-67
2022/10/05 06:03:54;;;;;;;20.67;5.95;;;21.70;99.90;;;;;;5107050;28;20404;-66
2022/10/05 06:06:29;;;;;;;15.68;5.65;;;21.70;99.90;;;;;;5104225;28;20480;-67
2022/10/05 06:09:24;;;;;;;15.47;6.10;;;21.80;99.90;;;;;;5102560;28;20448;-67
2022/10/05 06:12:18;;;;;;;23.63;6.23;;;21.80;99.90;;;;;;5109443;27;20423;-67
2022/10/05 06:15:39;;;;;;;21.80;6.00;;;21.90;99.90;;;;;;5108057;28;21070;-67
2022/10/05 06:18:14;;;;;;;17.97;5.90;;;21.90;99.90;;;;;;5106890;28;20465;-67
2022/10/05 06:21:04;;;;;;;22.15;6.38;;;22.00;99.90;;;;;;5115520;27;20958;-67
2022/10/05 06:23:51;;;;;;;19.15;5.80;;;22.00;99.90;;;;;;5105867;28;20944;-68
2022/10/05 06:27:10;;;;;;;21.73;5.70;;;22.10;99.90;;;;;;5099374;28;20753;-67
2022/10/05 06:30:14;;;;;;;15.68;5.97;;;22.10;99.90;;;;;;5104353;28;20428;-67
2022/10/05 06:33:08;;;;;;;15.82;5.90;;;22.20;99.90;;;;;;5094258;28;20412;-67
2022/10/05 06:36:03;;;;;;;20.63;5.95;;;22.20;99.90;;;;;;5098582;28;20420;-67
2022/10/05 06:39:30;;;;;;;20.85;5.70;;;22.30;99.90;;;;;;5102826;28;20400;-69
2022/10/05 06:42:22;;;;;;;21.23;7.70;;;22.40;99.90;;;;;;5113867;28;20412;-67
2022/10/05 06:44:56;;;;;;;25.95;6.20;;;22.40;99.90;;;;;;5097282;28;21032;-68
2022/10/05 06:47:46;;;;;;;24.25;5.82;;;22.50;99.90;;;;;;5100761;28;20786;-68
2022/10/05 06:50:42;;;;;;;19.48;5.57;;;22.60;99.90;;;;;;5104782;28;20416;-67
2022/10/05 06:53:44;;;;;;;18.45;5.60;;;22.70;99.90;;;;;;5102458;28;20416;-68
2022/10/05 06:56:29;;;;;;;23.97;6.07;;;22.70;99.90;;;;;;5101998;28;20759;-68
2022/10/05 06:59:15;;;;;;;22.50;5.88;;;22.80;99.90;;;;;;5092100;28;20416;-67
2022/10/05 07:02:14;;;;;;;18.95;5.72;;;22.90;99.90;;;;;;5100543;28;20473;-67
2022/10/05 07:04:58;;;;;;;24.67;6.50;;;23.00;99.90;;;;;;5101035;28;20433;-67
2022/10/05 07:07:49;;;;;;;26.42;5.97;;;23.10;99.90;;;;;;5101495;28;20526;-68
2022/10/05 07:10:37;;;;;;;18.97;5.77;;;23.20;99.90;;;;;;5105249;28;20429;-67
2022/10/05 07:13:47;;;;;;;20.85;5.60;;;23.20;99.90;;;;;;5122413;28;20524;-67
2022/10/05 07:16:54;;;;;;;23.98;5.65;;;23.30;99.90;;;;;;5082901;28;20411;-67
2022/10/05 07:19:51;;;;;;;21.70;5.75;;;23.40;99.90;;;;;;5106240;28;20477;-67
2022/10/05 07:23:02;;;;;;;21.00;5.45;;;23.50;99.90;;;;;;5104846;28;20403;-67
2022/10/05 07:25:58;;;;;;;17.95;5.25;;;23.60;99.90;;;;;;5108658;28;20496;-66
2022/10/05 07:28:51;;;;;;;22.38;5.78;;;23.70;99.90;;;;;;5105615;28;21093;-67
2022/10/05 07:31:46;;;;;;;17.80;5.10;;;23.80;99.90;;;;;;5065003;28;20423;-67
2022/10/05 07:34:39;;;;;;;19.37;5.73;;;23.70;99.90;;;;;;5092903;28;20406;-67
2022/10/05 07:37:56;;;;;;;17.02;5.30;;;23.80;99.90;;;;;;5122291;27;20404;-67
2022/10/05 07:40:39;;;;;;;18.63;5.25;;;23.80;99.90;;;;;;5101671;28;20886;-68
2022/10/05 07:43:17;;;;;;;16.23;4.95;;;23.80;99.90;;;;;;5103481;28;20425;-66
2022/10/05 07:46:09;;;;;;;24.92;5.32;;;24.00;99.90;;;;;;5106729;28;20416;-66
2022/10/05 07:49:23;;;;;;;24.35;5.78;;;24.00;99.90;;;;;;5092130;28;20405;-67
2022/10/05 07:52:32;;;;;;;19.67;5.20;;;24.10;99.90;;;;;;5058951;28;20415;-66
2022/10/05 07:55:24;;;;;;;24.35;5.57;;;24.20;99.90;;;;;;5083670;28;20408;-66
2022/10/05 07:58:04;;;;;;;16.58;4.65;;;24.20;99.90;;;;;;5118016;27;20407;-66
2022/10/05 08:01:12;;;;;;;20.70;5.28;;;24.20;99.90;;;;;;5087771;28;21265;-66
2022/10/05 08:04:03;;;;;;;22.75;5.47;;;24.20;99.90;;;;;;5089709;28;21038;-67
2022/10/05 08:07:12;;;;;;;18.08;5.20;;;24.20;99.90;;;;;;5102067;28;20412;-66
2022/10/05 08:10:03;;;;;;;19.75;4.97;;;24.30;99.90;;;;;;5119235;27;20408;-66
2022/10/05 08:12:50;;;;;;;19.20;5.18;;;24.50;99.90;;;;;;5106687;28;20426;-67
2022/10/05 08:15:32;;;;;;;20.92;5.15;;;24.70;99.90;;;;;;5104963;28;20408;-67
2022/10/05 08:18:37;;;;;;;32.92;5.35;;;24.60;99.90;;;;;;5118177;27;20979;-66
2022/10/05 08:21:10;;;;;;;18.50;5.28;;;24.70;99.90;;;;;;5088396;28;20975;-66
2022/10/05 08:23:58;;;;;;;18.83;4.80;;;24.80;99.90;;;;;;5104922;28;20416;-66
2022/10/05 08:26:37;;;;;;;14.82;4.75;;;24.80;99.90;;;;;;5107470;28;20424;-66
2022/10/05 08:29:31;;;;;;;20.00;4.97;;;24.90;99.90;;;;;;5099816;28;20421;-66
2022/10/05 08:32:18;;;;;;;28.02;5.35;;;24.90;99.90;;;;;;5102612;28;20427;-66
2022/10/05 08:35:02;;;;;;;14.00;4.65;;;24.90;99.90;;;;;;5102275;27;20431;-66
2022/10/05 08:37:36;;;;;;;21.17;5.45;;;24.90;99.90;;;;;;5101266;28;20408;-66
2022/10/05 08:40:41;;;;;;;20.35;4.90;;;25.00;99.90;;;;;;5098550;28;20552;-66
2022/10/05 08:43:26;;;;;;;27.67;5.65;;;25.10;99.90;;;;;;5103116;28;20411;-66
2022/10/05 08:46:30;;;;;;;14.43;4.38;;;25.10;99.90;;;;;;5105519;27;20419;-66
2022/10/05 08:49:24;;;;;;;16.40;4.93;;;25.10;99.90;;;;;;5104231;28;20408;-66
2022/10/05 08:52:33;;;;;;;19.65;5.13;;;25.20;99.90;;;;;;5104579;28;20412;-66
2022/10/05 08:56:01;;;;;;;19.90;4.72;;;25.40;99.90;;;;;;5074380;28;20760;-66
2022/10/05 08:59:13;;;;;;;16.92;4.95;;;25.40;99.90;;;;;;5083380;27;20420;-66
2022/10/05 09:02:20;;;;;;;17.13;4.90;;;25.50;99.90;;;;;;5121599;27;20461;-66
2022/10/05 09:05:21;;;;;;;16.00;4.90;;;25.50;99.90;;;;;;5096862;28;20427;-65
2022/10/05 09:08:09;;;;;;;16.45;4.72;;;25.40;99.90;;;;;;5100215;28;20400;-66
2022/10/05 09:11:26;;;;;;;18.83;5.28;;;25.50;99.90;;;;;;5106266;28;20568;-66
2022/10/05 09:14:21;;;;;;;17.27;4.82;;;25.70;99.90;;;;;;5063300;28;20423;-66
2022/10/05 09:17:40;;;;;;;18.83;4.35;;;25.80;99.90;;;;;;5098789;27;20419;-67
2022/10/05 09:20:29;;;;;;;11.88;4.00;;;25.80;99.90;;;;;;5104891;28;20404;-66
2022/10/05 09:23:16;;;;;;;16.50;4.85;;;25.60;99.90;;;;;;5106606;28;20432;-66
2022/10/05 09:26:43;;;;;;;18.55;4.70;;;25.70;99.90;;;;;;5095875;28;20887;-66
2022/10/05 09:30:02;;;;;;;19.55;4.50;;;26.00;99.90;;;;;;5082777;28;20414;-66
2022/10/05 09:46:35;;;;;;;15.20;4.03;;;26.30;99.90;;;;;;5097974;27;20392;-65
2022/10/05 09:49:46;;;;;;;19.30;4.23;;;26.40;99.90;;;;;;5080468;28;20605;-65
2022/10/05 09:52:34;;;;;;;17.33;4.07;;;26.40;99.90;;;;;;5063944;28;20429;-65
2022/10/05 09:56:04;;;;;;;16.98;4.25;;;26.20;99.90;;;;;;5082233;28;20465;-64
2022/10/05 09:58:53;;;;;;;11.40;3.80;;;25.90;99.90;;;;;;5045567;28;20431;-64
2022/10/05 10:01:44;;;;;;;15.75;4.20;;;25.70;99.90;;;;;;5061840;28;20412;-64
2022/10/05 10:04:31;;;;;;;17.38;4.47;;;26.00;99.90;;;;;;5048242;28;20419;-65
2022/10/05 10:07:38;;;;;;;13.38;4.05;;;26.10;99.90;;;;;;5011612;28;20519;-65
2022/10/05 10:10:57;;;;;;;16.65;4.25;;;26.20;99.90;;;;;;4970988;28;20504;-65
2022/10/05 10:13:40;;;;;;;18.73;4.63;;;26.20;99.90;;;;;;4966684;28;20429;-64
2022/10/05 10:16:48;;;;;;;16.50;3.88;;;26.20;99.90;;;;;;4989529;28;20423;-64
2022/10/05 10:19:59;;;;;;;16.65;4.10;;;26.00;99.90;;;;;;4983820;28;20411;-65
2022/10/05 10:23:17;;;;;;;13.77;3.75;;;26.50;99.90;;;;;;4985839;28;20473;-65
2022/10/05 10:26:11;;;;;;;13.57;3.30;;;27.40;99.90;;;;;;4985594;28;20507;-65
2022/10/05 10:29:04;;;;;;;12.70;3.83;;;28.00;99.90;;;;;;4997881;28;20934;-64
2022/10/05 10:31:47;;;;;;;15.63;3.92;;;27.80;99.90;;;;;;4985147;28;20474;-65
2022/10/05 10:34:40;;;;;;;12.43;3.80;;;26.90;99.90;;;;;;4985185;28;20812;-65
2022/10/05 10:37:24;;;;;;;15.80;3.83;;;26.70;99.90;;;;;;4983493;28;20412;-65
2022/10/05 10:40:29;;;;;;;13.50;3.40;;;26.40;99.90;;;;;;4976905;28;20416;-66
2022/10/05 10:42:55;;;;;;;9.73;3.03;;;26.30;99.90;;;;;;4988150;28;21091;-66
2022/10/05 10:46:19;;;;;;;11.55;3.40;;;26.40;99.90;;;;;;4984199;28;20432;-66
2022/10/05 10:49:25;;;;;;;13.63;3.50;;;26.70;99.90;;;;;;4971064;28;20940;-65
2022/10/05 10:52:11;;;;;;;17.33;3.72;;;26.90;99.90;;;;;;4983643;28;20459;-65
2022/10/05 10:55:22;;;;;;;10.90;3.42;;;26.80;99.90;;;;;;4966602;28;20432;-66
2022/10/05 10:58:24;;;;;;;15.80;3.70;;;26.70;99.90;;;;;;4957538;28;20466;-66
2022/10/05 11:01:34;;;;;;;11.60;3.03;;;26.80;99.90;;;;;;4979163;28;20444;-66
2022/10/05 11:04:27;;;;;;;15.27;3.28;;;26.90;99.90;;;;;;4968590;28;20515;-65
2022/10/05 11:07:37;;;;;;;17.23;3.25;;;27.00;99.90;;;;;;4969963;28;20444;-66
2022/10/05 11:10:19;;;;;;;11.07;3.00;;;27.00;99.90;;;;;;4984624;28;20430;-65
2022/10/05 11:13:20;;;;;;;15.30;3.20;;;27.00;99.90;;;;;;4959586;28;21788;-66
2022/10/05 11:16:48;;;;;;;10.70;3.20;;;27.00;99.90;;;;;;4979755;28;20428;-66
2022/10/05 11:19:38;;;;;;;10.85;3.40;;;27.00;99.90;;;;;;4977417;28;20475;-66
2022/10/05 11:22:35;;;;;;;14.95;3.42;;;26.70;99.90;;;;;;4968696;28;20478;-66
2022/10/05 11:25:54;;;;;;;12.48;3.80;;;26.40;99.90;;;;;;4981217;28;20424;-66
2022/10/05 11:28:38;;;;;;;9.90;3.20;;;26.70;99.90;;;;;;4966262;28;20800;-66
2022/10/05 11:31:49;;;;;;;12.75;3.08;;;26.80;99.90;;;;;;4966731;28;20865;-67
2022/10/05 11:34:36;;;;;;;15.33;3.73;;;26.70;99.90;;;;;;4964949;28;20424;-65
2022/10/05 11:37:18;;;;;;;11.63;2.90;;;26.70;99.90;;;;;;4966624;28;22402;-65
2022/10/05 11:40:06;;;;;;;13.18;3.33;;;26.60;99.90;;;;;;4965797;28;20432;-66
2022/10/05 11:43:15;;;;;;;13.15;3.42;;;26.70;99.90;;;;;;4965014;28;20976;-65
2022/10/05 11:46:19;;;;;;;11.15;3.13;;;26.80;99.90;;;;;;4961871;28;20426;-66
2022/10/05 11:49:12;;;;;;;10.50;3.20;;;26.80;99.90;;;;;;4979563;28;20578;-65
2022/10/05 11:51:53;;;;;;;11.30;3.50;;;26.80;99.90;;;;;;4962290;28;20448;-66
2022/10/05 11:54:31;;;;;;;14.18;3.60;;;26.70;99.90;;;;;;4961301;28;20420;-66
2022/10/05 11:57:41;;;;;;;17.65;4.07;;;26.70;99.90;;;;;;4965575;28;20486;-66
2022/10/05 12:00:20;;;;;;;12.98;3.80;;;26.70;99.90;;;;;;4951667;28;20503;-66
2022/10/05 12:03:56;;;;;;;15.33;3.70;;;26.80;99.90;;;;;;4966348;28;20919;-66
2022/10/05 12:06:52;;;;;;;15.60;3.30;;;26.80;99.90;;;;;;4956671;28;20423;-66
2022/10/05 12:10:13;;;;;;;16.00;3.60;;;26.70;99.90;;;;;;4969780;28;20779;-66
2022/10/05 12:13:01;;;;;;;16.70;3.15;;;26.60;99.90;;;;;;4970851;28;20460;-66
2022/10/05 12:15:58;;;;;;;15.17;3.57;;;26.60;99.90;;;;;;4969064;28;20518;-66
2022/10/05 12:18:30;;;;;;;10.48;3.38;;;26.70;99.90;;;;;;4964539;28;20936;-66
2022/10/05 12:21:55;;;;;;;10.68;2.80;;;26.70;99.90;;;;;;4965168;28;20431;-65
2022/10/05 12:24:34;;;;;;;8.85;2.53;;;26.60;99.90;;;;;;4954911;28;20529;-65
2022/10/05 12:27:26;;;;;;;14.45;3.35;;;26.60;99.90;;;;;;4970038;28;20500;-65
2022/10/05 12:30:15;;;;;;;10.57;2.80;;;26.50;99.90;;;;;;4952464;28;21019;-65
2022/10/05 12:33:06;;;;;;;10.93;2.78;;;26.50;99.90;;;;;;4970406;28;20428;-66
2022/10/05 12:35:57;;;;;;;6.38;2.05;;;26.50;99.90;;;;;;4969811;28;20503;-66
2022/10/05 12:39:03;;;;;;;12.77;2.80;;;26.40;99.90;;;;;;4952932;28;20400;-66
2022/10/05 12:42:09;;;;;;;8.25;2.30;;;26.50;99.90;;;;;;4968837;28;20804;-65
2022/10/05 12:45:05;;;;;;;10.27;2.40;;;26.50;99.90;;;;;;4970996;28;20471;-66
2022/10/05 12:47:38;;;;;;;12.63;3.00;;;26.50;99.90;;;;;;4967762;28;20404;-67
2022/10/05 12:50:56;;;;;;;9.45;2.05;;;26.50;99.90;;;;;;4966950;28;20564;-66
2022/10/05 12:53:57;;;;;;;5.80;1.80;;;26.40;99.90;;;;;;4961277;28;22683;-66
2022/10/05 12:57:00;;;;;;;9.48;2.28;;;26.30;99.90;;;;;;4966714;28;21197;-66
2022/10/05 12:59:44;;;;;;;9.43;1.77;;;26.30;99.90;;;;;;4969689;28;20448;-66
2022/10/05 13:02:45;;;;;;;5.55;1.70;;;26.30;99.90;;;;;;4963621;28;21101;-66
2022/10/05 13:05:22;;;;;;;6.07;1.90;;;26.30;99.90;;;;;;4969413;28;20423;-66
2022/10/05 13:08:44;;;;;;;6.47;1.95;;;26.30;99.90;;;;;;4968370;28;20439;-66
2022/10/05 13:11:39;;;;;;;8.05;1.85;;;26.30;99.90;;;;;;4950669;28;20936;-66
2022/10/05 13:14:22;;;;;;;7.13;1.60;;;26.30;99.90;;;;;;4950409;28;20426;-67
2022/10/05 13:16:55;;;;;;;5.00;1.70;;;26.30;99.90;;;;;;4950415;28;21006;-67
2022/10/05 13:19:45;;;;;;;7.20;1.80;;;26.20;99.90;;;;;;4948952;29;20410;-67
2022/10/05 13:22:50;;;;;;;6.88;1.55;;;26.20;99.90;;;;;;4953473;28;20916;-67
2022/10/05 13:25:30;;;;;;;7.50;1.40;;;26.10;99.90;;;;;;4964237;28;20435;-66
2022/10/05 13:28:13;;;;;;;4.60;1.50;;;26.00;99.90;;;;;;4957254;28;20420;-67
2022/10/05 13:30:50;;;;;;;4.53;1.50;;;26.00;99.90;;;;;;4969334;28;20420;-67
2022/10/05 13:33:50;;;;;;;3.47;1.10;;;26.10;99.90;;;;;;4967070;28;20411;-67
2022/10/05 13:36:46;;;;;;;4.70;1.50;;;26.00;99.90;;;;;;4973435;28;20422;-66
2022/10/05 13:39:30;;;;;;;6.53;1.40;;;26.00;99.90;;;;;;4950224;28;20773;-67
2022/10/05 13:42:39;;;;;;;6.40;1.40;;;26.00;99.90;;;;;;4948737;29;20414;-67
2022/10/05 13:45:22;;;;;;;4.97;1.50;;;26.00;99.90;;;;;;4959655;28;20878;-66
2022/10/05 13:48:25;;;;;;;6.65;1.33;;;25.90;99.90;;;;;;4965744;28;20430;-67
2022/10/05 13:51:10;;;;;;;6.15;1.80;;;25.80;99.90;;;;;;4949935;28;20464;-67
2022/10/05 13:53:54;;;;;;;5.65;1.70;;;25.80;99.90;;;;;;4961701;28;20747;-66
2022/10/05 13:56:32;;;;;;;5.90;1.83;;;25.70;99.90;;;;;;4962882;28;20814;-66
2022/10/05 13:59:56;;;;;;;10.88;1.92;;;25.70;99.90;;;;;;4961195;28;20506;-66
2022/10/05 14:02:39;;;;;;;6.68;1.70;;;25.70;99.90;;;;;;4962441;28;20519;-67
2022/10/05 14:05:18;;;;;;;6.68;2.03;;;25.60;99.90;;;;;;4949806;28;20416;-66
2022/10/05 14:08:02;;;;;;;8.60;1.98;;;25.50;99.90;;;;;;4964810;28;20514;-66
2022/10/05 14:10:45;;;;;;;8.43;2.50;;;25.50;99.90;;;;;;4967168;28;20556;-66
2022/10/05 14:13:47;;;;;;;7.93;2.30;;;25.50;99.90;;;;;;4969006;28;21008;-67
2022/10/05 14:16:25;;;;;;;8.57;2.00;;;25.50;99.90;;;;;;4953171;28;20416;-67
2022/10/05 14:19:25;;;;;;;6.05;1.88;;;25.40;99.90;;;;;;4967705;28;20454;-67
2022/10/05 14:22:11;;;;;;;9.02;2.10;;;25.40;99.90;;;;;;4970842;28;20411;-66
2022/10/05 14:25:21;;;;;;;7.53;2.10;;;25.40;99.90;;;;;;4966213;28;20513;-67
2022/10/05 14:28:11;;;;;;;10.13;2.30;;;25.30;99.90;;;;;;4962687;28;20480;-67
2022/10/05 14:30:38;;;;;;;8.10;2.23;;;25.20;99.90;;;;;;4968733;28;20416;-67
2022/10/05 14:33:04;;;;;;;6.40;1.90;;;25.20;99.90;;;;;;4964473;28;20448;-66
2022/10/05 14:35:56;;;;;;;9.67;2.50;;;25.10;99.90;;;;;;4962774;28;20410;-67
2022/10/05 14:38:34;;;;;;;6.75;2.20;;;25.10;99.90;;;;;;4951563;28;20922;-67
2022/10/05 14:41:26;;;;;;;8.93;2.45;;;25.10;99.90;;;;;;4951498;29;20409;-66
2022/10/05 14:44:27;;;;;;;6.70;2.20;;;25.10;99.90;;;;;;4957866;28;20462;-67
2022/10/05 14:47:11;;;;;;;6.68;2.40;;;24.90;99.90;;;;;;4972166;28;20407;-67
2022/10/05 14:50:09;;;;;;;8.05;1.92;;;24.90;99.90;;;;;;4970876;28;20412;-67
2022/10/05 14:52:39;;;;;;;9.70;2.17;;;24.80;99.90;;;;;;4967086;28;20445;-67
2022/10/05 14:55:42;;;;;;;7.93;2.03;;;24.80;99.90;;;;;;4962703;28;21161;-67
2022/10/05 14:58:40;;;;;;;6.43;2.13;;;24.70;99.90;;;;;;4967607;28;20424;-66
2022/10/05 15:01:30;;;;;;;5.45;2.10;;;24.60;99.90;;;;;;4971574;28;20475;-67